Terminal Aerodrome Forecast
Issued by NWS

Home | Current Version | Previous Version | Text Only | Print | Product List | Glossary On
Versions: 1 2 3 4 5 6 7 8 9 10 11 12 13 14 15 16 17
000
FTUS41 KCAR 302344 AAA
TAFHUL
TAF AMD
KHUL 302344Z 3100/3118 17009KT P6SM OVC100
     FM310300 18006KT 5SM -SHRA BR OVC030
     FM310500 18005KT 3SM BR OVC007
     FM311300 21005KT P6SM BKN035
     FM311600 25010G16KT P6SM SCT060=

USA.gov is the U.S. government's official web portal to all federal, state and local government web resources and services.